sensor_id;sensor_type;location;lat;lon;timestamp;temperature;humidity
61016;DHT22;46902;52.920;6.536;2023-12-04T00:00:27;1.30;99.90
61016;DHT22;46902;52.920;6.536;2023-12-04T00:02:52;1.30;99.90
61016;DHT22;46902;52.920;6.536;2023-12-04T00:05:18;1.30;99.90
61016;DHT22;46902;52.920;6.536;2023-12-04T00:07:43;1.30;99.90
61016;DHT22;46902;52.920;6.536;2023-12-04T00:10:09;1.30;99.90
61016;DHT22;46902;52.920;6.536;2023-12-04T00:12:35;1.30;99.90
61016;DHT22;46902;52.920;6.536;2023-12-04T00:15:00;1.30;99.90
61016;DHT22;46902;52.920;6.536;2023-12-04T00:17:26;1.30;99.90
61016;DHT22;46902;52.920;6.536;2023-12-04T00:19:51;1.30;99.90
61016;DHT22;46902;52.920;6.536;2023-12-04T00:22:17;1.30;99.90
61016;DHT22;46902;52.920;6.536;2023-12-04T00:24:42;1.30;99.90
61016;DHT22;46902;52.920;6.536;2023-12-04T00:27:08;1.30;99.90
61016;DHT22;46902;52.920;6.536;2023-12-04T00:29:34;1.30;99.90
61016;DHT22;46902;52.920;6.536;2023-12-04T00:31:59;1.30;99.90
61016;DHT22;46902;52.920;6.536;2023-12-04T00:34:25;1.30;99.90
61016;DHT22;46902;52.920;6.536;2023-12-04T00:36:50;1.30;99.90
61016;DHT22;46902;52.920;6.536;2023-12-04T00:39:16;1.30;99.90
61016;DHT22;46902;52.920;6.536;2023-12-04T00:41:42;1.30;99.90
61016;DHT22;46902;52.920;6.536;2023-12-04T00:44:08;1.30;99.90
61016;DHT22;46902;52.920;6.536;2023-12-04T00:46:33;1.30;99.90
61016;DHT22;46902;52.920;6.536;2023-12-04T00:48:59;1.30;99.90
61016;DHT22;46902;52.920;6.536;2023-12-04T00:51:25;1.30;99.90
61016;DHT22;46902;52.920;6.536;2023-12-04T00:53:51;1.30;99.90
61016;DHT22;46902;52.920;6.536;2023-12-04T00:56:17;1.30;99.90
61016;DHT22;46902;52.920;6.536;2023-12-04T00:58:44;1.30;99.90
61016;DHT22;46902;52.920;6.536;2023-12-04T01:01:09;1.30;99.90
61016;DHT22;46902;52.920;6.536;2023-12-04T01:03:35;1.30;99.90
61016;DHT22;46902;52.920;6.536;2023-12-04T01:06:00;1.30;99.90
61016;DHT22;46902;52.920;6.536;2023-12-04T01:08:26;1.30;99.90
61016;DHT22;46902;52.920;6.536;2023-12-04T01:10:52;1.30;99.90
61016;DHT22;46902;52.920;6.536;2023-12-04T01:13:17;1.30;99.90
61016;DHT22;46902;52.920;6.536;2023-12-04T01:15:43;1.30;99.90
61016;DHT22;46902;52.920;6.536;2023-12-04T01:18:10;1.30;99.90
61016;DHT22;46902;52.920;6.536;2023-12-04T01:20:35;1.30;99.90
61016;DHT22;46902;52.920;6.536;2023-12-04T01:23:01;1.30;99.90
61016;DHT22;46902;52.920;6.536;2023-12-04T01:25:28;1.40;99.90
61016;DHT22;46902;52.920;6.536;2023-12-04T01:27:54;1.40;99.90
61016;DHT22;46902;52.920;6.536;2023-12-04T01:30:19;1.30;99.90
61016;DHT22;46902;52.920;6.536;2023-12-04T01:32:45;1.40;99.90
61016;DHT22;46902;52.920;6.536;2023-12-04T01:35:10;1.30;99.90
61016;DHT22;46902;52.920;6.536;2023-12-04T01:37:37;1.30;99.90
61016;DHT22;46902;52.920;6.536;2023-12-04T01:40:04;1.40;99.90
61016;DHT22;46902;52.920;6.536;2023-12-04T01:42:32;1.30;99.90
61016;DHT22;46902;52.920;6.536;2023-12-04T01:44:57;1.30;99.90
61016;DHT22;46902;52.920;6.536;2023-12-04T01:47:23;1.30;99.90
61016;DHT22;46902;52.920;6.536;2023-12-04T01:49:49;1.30;99.90
61016;DHT22;46902;52.920;6.536;2023-12-04T01:52:15;1.30;99.90
61016;DHT22;46902;52.920;6.536;2023-12-04T01:54:41;1.30;99.90
61016;DHT22;46902;52.920;6.536;2023-12-04T01:57:08;1.30;99.90
61016;DHT22;46902;52.920;6.536;2023-12-04T01:59:34;1.30;99.90
61016;DHT22;46902;52.920;6.536;2023-12-04T02:02:00;1.30;99.90
61016;DHT22;46902;52.920;6.536;2023-12-04T02:04:27;1.30;99.90
61016;DHT22;46902;52.920;6.536;2023-12-04T02:06:53;1.30;99.90
61016;DHT22;46902;52.920;6.536;2023-12-04T02:09:19;1.30;99.90
61016;DHT22;46902;52.920;6.536;2023-12-04T02:11:45;1.30;99.90
61016;DHT22;46902;52.920;6.536;2023-12-04T02:14:10;1.30;99.90
61016;DHT22;46902;52.920;6.536;2023-12-04T02:16:40;1.40;99.90
61016;DHT22;46902;52.920;6.536;2023-12-04T02:19:07;1.30;99.90
61016;DHT22;46902;52.920;6.536;2023-12-04T02:21:33;1.30;99.90
61016;DHT22;46902;52.920;6.536;2023-12-04T02:23:59;1.30;99.90
61016;DHT22;46902;52.920;6.536;2023-12-04T02:26:30;1.30;99.90
61016;DHT22;46902;52.920;6.536;2023-12-04T02:28:59;1.40;99.90
61016;DHT22;46902;52.920;6.536;2023-12-04T02:31:27;1.40;99.90
61016;DHT22;46902;52.920;6.536;2023-12-04T02:33:55;1.40;99.90
61016;DHT22;46902;52.920;6.536;2023-12-04T02:36:25;1.40;99.90
61016;DHT22;46902;52.920;6.536;2023-12-04T02:38:53;1.30;99.90
61016;DHT22;46902;52.920;6.536;2023-12-04T02:41:19;1.40;99.90
61016;DHT22;46902;52.920;6.536;2023-12-04T02:43:44;1.40;99.90
61016;DHT22;46902;52.920;6.536;2023-12-04T02:46:10;1.40;99.90
61016;DHT22;46902;52.920;6.536;2023-12-04T02:48:36;1.40;99.90
61016;DHT22;46902;52.920;6.536;2023-12-04T02:51:03;1.40;99.90
61016;DHT22;46902;52.920;6.536;2023-12-04T02:53:28;1.40;99.90
61016;DHT22;46902;52.920;6.536;2023-12-04T02:55:54;1.40;99.90
61016;DHT22;46902;52.920;6.536;2023-12-04T02:58:20;1.40;99.90
61016;DHT22;46902;52.920;6.536;2023-12-04T03:00:45;1.40;99.90
61016;DHT22;46902;52.920;6.536;2023-12-04T03:03:11;1.40;99.90
61016;DHT22;46902;52.920;6.536;2023-12-04T03:05:36;1.30;99.90
61016;DHT22;46902;52.920;6.536;2023-12-04T03:08:02;1.40;99.90
61016;DHT22;46902;52.920;6.536;2023-12-04T03:10:28;1.40;99.90
61016;DHT22;46902;52.920;6.536;2023-12-04T03:12:53;1.40;99.90
61016;DHT22;46902;52.920;6.536;2023-12-04T03:15:19;1.40;99.90
61016;DHT22;46902;52.920;6.536;2023-12-04T03:17:44;1.40;99.90
61016;DHT22;46902;52.920;6.536;2023-12-04T03:20:10;1.40;99.90
61016;DHT22;46902;52.920;6.536;2023-12-04T03:22:36;1.40;99.90
61016;DHT22;46902;52.920;6.536;2023-12-04T03:25:02;1.40;99.90
61016;DHT22;46902;52.920;6.536;2023-12-04T03:27:28;1.40;99.90
61016;DHT22;46902;52.920;6.536;2023-12-04T03:29:54;1.40;99.90
61016;DHT22;46902;52.920;6.536;2023-12-04T03:32:20;1.40;99.90
61016;DHT22;46902;52.920;6.536;2023-12-04T03:34:45;1.40;99.90
61016;DHT22;46902;52.920;6.536;2023-12-04T03:37:11;1.40;99.90
61016;DHT22;46902;52.920;6.536;2023-12-04T03:39:36;1.40;99.90
61016;DHT22;46902;52.920;6.536;2023-12-04T03:42:02;1.40;99.90
61016;DHT22;46902;52.920;6.536;2023-12-04T03:44:28;1.40;99.90
61016;DHT22;46902;52.920;6.536;2023-12-04T03:46:53;1.40;99.90
61016;DHT22;46902;52.920;6.536;2023-12-04T03:49:19;1.50;99.90
61016;DHT22;46902;52.920;6.536;2023-12-04T03:51:45;1.50;99.90
61016;DHT22;46902;52.920;6.536;2023-12-04T03:54:10;1.50;99.90
61016;DHT22;46902;52.920;6.536;2023-12-04T03:56:36;1.40;99.90
61016;DHT22;46902;52.920;6.536;2023-12-04T03:59:02;1.50;99.90
61016;DHT22;46902;52.920;6.536;2023-12-04T04:01:28;1.50;99.90
61016;DHT22;46902;52.920;6.536;2023-12-04T04:03:54;1.40;99.90
61016;DHT22;46902;52.920;6.536;2023-12-04T04:06:19;1.40;99.90
61016;DHT22;46902;52.920;6.536;2023-12-04T04:08:45;1.50;99.90
61016;DHT22;46902;52.920;6.536;2023-12-04T04:11:10;1.40;99.90
61016;DHT22;46902;52.920;6.536;2023-12-04T04:13:37;1.40;99.90
61016;DHT22;46902;52.920;6.536;2023-12-04T04:16:03;1.40;99.90
61016;DHT22;46902;52.920;6.536;2023-12-04T04:18:28;1.50;99.90
61016;DHT22;46902;52.920;6.536;2023-12-04T04:20:54;1.50;99.90
61016;DHT22;46902;52.920;6.536;2023-12-04T04:23:20;1.50;99.90
61016;DHT22;46902;52.920;6.536;2023-12-04T04:25:45;1.40;99.90
61016;DHT22;46902;52.920;6.536;2023-12-04T04:28:11;1.40;99.90
61016;DHT22;46902;52.920;6.536;2023-12-04T04:30:36;1.40;99.90
61016;DHT22;46902;52.920;6.536;2023-12-04T04:33:02;1.50;99.90
61016;DHT22;46902;52.920;6.536;2023-12-04T04:35:29;1.50;99.90
61016;DHT22;46902;52.920;6.536;2023-12-04T04:37:55;1.40;99.90
61016;DHT22;46902;52.920;6.536;2023-12-04T04:40:21;1.50;99.90
61016;DHT22;46902;52.920;6.536;2023-12-04T04:42:46;1.50;99.90
61016;DHT22;46902;52.920;6.536;2023-12-04T04:45:12;1.50;99.90
61016;DHT22;46902;52.920;6.536;2023-12-04T04:47:37;1.50;99.90
61016;DHT22;46902;52.920;6.536;2023-12-04T04:50:03;1.50;99.90
61016;DHT22;46902;52.920;6.536;2023-12-04T04:52:29;1.50;99.90
61016;DHT22;46902;52.920;6.536;2023-12-04T04:54:55;1.50;99.90
61016;DHT22;46902;52.920;6.536;2023-12-04T04:57:20;1.50;99.90
61016;DHT22;46902;52.920;6.536;2023-12-04T04:59:46;1.50;99.90
61016;DHT22;46902;52.920;6.536;2023-12-04T05:02:11;1.50;99.90
61016;DHT22;46902;52.920;6.536;2023-12-04T05:04:37;1.50;99.90
61016;DHT22;46902;52.920;6.536;2023-12-04T05:07:03;1.50;99.90
61016;DHT22;46902;52.920;6.536;2023-12-04T05:09:28;1.50;99.90
61016;DHT22;46902;52.920;6.536;2023-12-04T05:11:54;1.50;99.90
61016;DHT22;46902;52.920;6.536;2023-12-04T05:14:19;1.50;99.90
61016;DHT22;46902;52.920;6.536;2023-12-04T05:16:45;1.50;99.90
61016;DHT22;46902;52.920;6.536;2023-12-04T05:19:11;1.50;99.90
61016;DHT22;46902;52.920;6.536;2023-12-04T05:21:36;1.40;99.90
61016;DHT22;46902;52.920;6.536;2023-12-04T05:24:02;1.50;99.90
61016;DHT22;46902;52.920;6.536;2023-12-04T05:26:27;1.50;99.90
61016;DHT22;46902;52.920;6.536;2023-12-04T05:28:53;1.50;99.90
61016;DHT22;46902;52.920;6.536;2023-12-04T05:31:18;1.50;99.90
61016;DHT22;46902;52.920;6.536;2023-12-04T05:33:44;1.50;99.90
61016;DHT22;46902;52.920;6.536;2023-12-04T05:36:10;1.50;99.90
61016;DHT22;46902;52.920;6.536;2023-12-04T05:38:35;1.50;99.90
61016;DHT22;46902;52.920;6.536;2023-12-04T05:41:01;1.50;99.90
61016;DHT22;46902;52.920;6.536;2023-12-04T05:43:27;1.50;99.90
61016;DHT22;46902;52.920;6.536;2023-12-04T05:45:52;1.50;99.90
61016;DHT22;46902;52.920;6.536;2023-12-04T05:48:18;1.50;99.90
61016;DHT22;46902;52.920;6.536;2023-12-04T05:50:44;1.50;99.90
61016;DHT22;46902;52.920;6.536;2023-12-04T05:53:11;1.50;99.90
61016;DHT22;46902;52.920;6.536;2023-12-04T05:55:36;1.50;99.90
61016;DHT22;46902;52.920;6.536;2023-12-04T05:58:02;1.50;99.90
61016;DHT22;46902;52.920;6.536;2023-12-04T06:00:27;1.50;99.90
61016;DHT22;46902;52.920;6.536;2023-12-04T06:02:53;1.50;99.90
61016;DHT22;46902;52.920;6.536;2023-12-04T06:05:19;1.50;99.90
61016;DHT22;46902;52.920;6.536;2023-12-04T06:07:44;1.50;99.90
61016;DHT22;46902;52.920;6.536;2023-12-04T06:10:10;1.50;99.90
61016;DHT22;46902;52.920;6.536;2023-12-04T06:12:36;1.40;99.90
61016;DHT22;46902;52.920;6.536;2023-12-04T06:15:02;1.50;99.90
61016;DHT22;46902;52.920;6.536;2023-12-04T06:17:27;1.40;99.90
61016;DHT22;46902;52.920;6.536;2023-12-04T06:19:53;1.40;99.90
61016;DHT22;46902;52.920;6.536;2023-12-04T06:22:19;1.50;99.90
61016;DHT22;46902;52.920;6.536;2023-12-04T06:24:47;1.40;99.90
61016;DHT22;46902;52.920;6.536;2023-12-04T06:27:17;1.40;99.90
61016;DHT22;46902;52.920;6.536;2023-12-04T06:29:47;1.40;99.90
61016;DHT22;46902;52.920;6.536;2023-12-04T06:32:13;1.40;99.90
61016;DHT22;46902;52.920;6.536;2023-12-04T06:34:39;1.50;99.90
61016;DHT22;46902;52.920;6.536;2023-12-04T06:37:10;1.40;99.90
61016;DHT22;46902;52.920;6.536;2023-12-04T06:39:37;1.40;99.90
61016;DHT22;46902;52.920;6.536;2023-12-04T06:42:07;1.40;99.90
61016;DHT22;46902;52.920;6.536;2023-12-04T06:44:34;1.40;99.90
61016;DHT22;46902;52.920;6.536;2023-12-04T06:47:00;1.40;99.90
61016;DHT22;46902;52.920;6.536;2023-12-04T06:49:31;1.40;99.90
61016;DHT22;46902;52.920;6.536;2023-12-04T06:51:58;1.40;99.90
61016;DHT22;46902;52.920;6.536;2023-12-04T06:54:24;1.30;99.90
61016;DHT22;46902;52.920;6.536;2023-12-04T06:56:50;1.30;99.90
61016;DHT22;46902;52.920;6.536;2023-12-04T06:59:17;1.30;99.90
61016;DHT22;46902;52.920;6.536;2023-12-04T07:01:42;1.30;99.90
61016;DHT22;46902;52.920;6.536;2023-12-04T07:04:08;1.30;99.90
61016;DHT22;46902;52.920;6.536;2023-12-04T07:06:39;1.30;99.90
61016;DHT22;46902;52.920;6.536;2023-12-04T07:09:05;1.30;99.90
61016;DHT22;46902;52.920;6.536;2023-12-04T07:11:34;1.30;99.90
61016;DHT22;46902;52.920;6.536;2023-12-04T07:13:59;1.30;99.90
61016;DHT22;46902;52.920;6.536;2023-12-04T07:16:25;1.30;99.90
61016;DHT22;46902;52.920;6.536;2023-12-04T07:18:51;1.30;99.90
61016;DHT22;46902;52.920;6.536;2023-12-04T07:21:16;1.30;99.90
61016;DHT22;46902;52.920;6.536;2023-12-04T07:23:42;1.30;99.90
61016;DHT22;46902;52.920;6.536;2023-12-04T07:26:08;1.30;99.90
61016;DHT22;46902;52.920;6.536;2023-12-04T07:28:34;1.30;99.90
61016;DHT22;46902;52.920;6.536;2023-12-04T07:31:00;1.30;99.90
61016;DHT22;46902;52.920;6.536;2023-12-04T07:33:27;1.30;99.90
61016;DHT22;46902;52.920;6.536;2023-12-04T07:35:53;1.30;99.90
61016;DHT22;46902;52.920;6.536;2023-12-04T07:38:18;1.30;99.90
61016;DHT22;46902;52.920;6.536;2023-12-04T07:40:45;1.30;99.90
61016;DHT22;46902;52.920;6.536;2023-12-04T07:43:11;1.30;99.90
61016;DHT22;46902;52.920;6.536;2023-12-04T07:45:36;1.30;99.90
61016;DHT22;46902;52.920;6.536;2023-12-04T07:48:03;1.30;99.90
61016;DHT22;46902;52.920;6.536;2023-12-04T07:50:29;1.30;99.90
61016;DHT22;46902;52.920;6.536;2023-12-04T07:52:58;1.30;99.90
61016;DHT22;46902;52.920;6.536;2023-12-04T07:55:23;1.40;99.90
61016;DHT22;46902;52.920;6.536;2023-12-04T07:57:49;1.40;99.90
61016;DHT22;46902;52.920;6.536;2023-12-04T08:00:16;1.40;99.90
61016;DHT22;46902;52.920;6.536;2023-12-04T08:02:44;1.40;99.90
61016;DHT22;46902;52.920;6.536;2023-12-04T08:05:11;1.40;99.90
61016;DHT22;46902;52.920;6.536;2023-12-04T08:07:37;1.40;99.90
61016;DHT22;46902;52.920;6.536;2023-12-04T08:10:03;1.40;99.90
61016;DHT22;46902;52.920;6.536;2023-12-04T08:12:29;1.40;99.90
61016;DHT22;46902;52.920;6.536;2023-12-04T08:14:55;1.40;99.90
61016;DHT22;46902;52.920;6.536;2023-12-04T08:17:20;1.40;99.90
61016;DHT22;46902;52.920;6.536;2023-12-04T08:19:46;1.40;99.90
61016;DHT22;46902;52.920;6.536;2023-12-04T08:22:12;1.50;99.90
61016;DHT22;46902;52.920;6.536;2023-12-04T08:24:37;1.50;99.90
61016;DHT22;46902;52.920;6.536;2023-12-04T08:27:03;1.50;99.90
61016;DHT22;46902;52.920;6.536;2023-12-04T08:29:28;1.50;99.90
61016;DHT22;46902;52.920;6.536;2023-12-04T08:31:54;1.50;99.90
61016;DHT22;46902;52.920;6.536;2023-12-04T08:34:20;1.50;99.90
61016;DHT22;46902;52.920;6.536;2023-12-04T08:36:45;1.50;99.90
61016;DHT22;46902;52.920;6.536;2023-12-04T08:39:11;1.50;99.90
61016;DHT22;46902;52.920;6.536;2023-12-04T08:41:37;1.50;99.90
61016;DHT22;46902;52.920;6.536;2023-12-04T08:44:02;1.50;99.90
61016;DHT22;46902;52.920;6.536;2023-12-04T08:46:28;1.50;99.90
61016;DHT22;46902;52.920;6.536;2023-12-04T08:48:54;1.50;99.90
61016;DHT22;46902;52.920;6.536;2023-12-04T08:51:19;1.50;99.90
61016;DHT22;46902;52.920;6.536;2023-12-04T08:53:45;1.50;99.90
61016;DHT22;46902;52.920;6.536;2023-12-04T08:56:11;1.60;99.90
61016;DHT22;46902;52.920;6.536;2023-12-04T08:58:37;1.60;99.90
61016;DHT22;46902;52.920;6.536;2023-12-04T09:01:02;1.60;99.90
61016;DHT22;46902;52.920;6.536;2023-12-04T09:03:29;1.60;99.90
61016;DHT22;46902;52.920;6.536;2023-12-04T09:05:57;1.60;99.90
61016;DHT22;46902;52.920;6.536;2023-12-04T09:08:23;1.70;99.90
61016;DHT22;46902;52.920;6.536;2023-12-04T09:10:49;1.60;99.90
61016;DHT22;46902;52.920;6.536;2023-12-04T09:13:15;1.70;99.90
61016;DHT22;46902;52.920;6.536;2023-12-04T09:15:41;1.70;99.90
61016;DHT22;46902;52.920;6.536;2023-12-04T09:18:07;1.70;99.90
61016;DHT22;46902;52.920;6.536;2023-12-04T09:20:32;1.70;99.90
61016;DHT22;46902;52.920;6.536;2023-12-04T09:22:58;1.70;99.90
61016;DHT22;46902;52.920;6.536;2023-12-04T09:25:24;1.80;99.90
61016;DHT22;46902;52.920;6.536;2023-12-04T09:27:50;1.80;99.90
61016;DHT22;46902;52.920;6.536;2023-12-04T09:30:15;1.80;99.90
61016;DHT22;46902;52.920;6.536;2023-12-04T09:32:41;1.80;99.90
61016;DHT22;46902;52.920;6.536;2023-12-04T09:35:06;1.90;99.90
61016;DHT22;46902;52.920;6.536;2023-12-04T09:37:32;1.90;99.90
61016;DHT22;46902;52.920;6.536;2023-12-04T09:39:58;1.90;99.90
61016;DHT22;46902;52.920;6.536;2023-12-04T09:42:24;1.90;99.90
61016;DHT22;46902;52.920;6.536;2023-12-04T09:44:52;1.90;99.90
61016;DHT22;46902;52.920;6.536;2023-12-04T09:47:18;1.90;99.90
61016;DHT22;46902;52.920;6.536;2023-12-04T09:49:45;1.90;99.90
61016;DHT22;46902;52.920;6.536;2023-12-04T09:52:11;2.00;99.90
61016;DHT22;46902;52.920;6.536;2023-12-04T09:54:37;2.00;99.90
61016;DHT22;46902;52.920;6.536;2023-12-04T09:57:05;2.00;99.90
61016;DHT22;46902;52.920;6.536;2023-12-04T09:59:31;2.10;99.90
61016;DHT22;46902;52.920;6.536;2023-12-04T10:01:57;2.10;99.90
61016;DHT22;46902;52.920;6.536;2023-12-04T10:04:24;2.10;99.90
61016;DHT22;46902;52.920;6.536;2023-12-04T10:06:51;2.20;99.90
61016;DHT22;46902;52.920;6.536;2023-12-04T10:09:18;2.20;99.90
61016;DHT22;46902;52.920;6.536;2023-12-04T10:11:45;2.20;99.90
61016;DHT22;46902;52.920;6.536;2023-12-04T10:14:15;2.20;99.90
61016;DHT22;46902;52.920;6.536;2023-12-04T10:16:45;2.30;99.90
61016;DHT22;46902;52.920;6.536;2023-12-04T10:19:19;2.30;99.90
61016;DHT22;46902;52.920;6.536;2023-12-04T10:21:46;2.30;99.90
61016;DHT22;46902;52.920;6.536;2023-12-04T10:24:13;2.30;99.90
61016;DHT22;46902;52.920;6.536;2023-12-04T10:26:51;2.30;99.90
61016;DHT22;46902;52.920;6.536;2023-12-04T10:29:17;2.30;99.90
61016;DHT22;46902;52.920;6.536;2023-12-04T10:31:43;2.30;99.90
61016;DHT22;46902;52.920;6.536;2023-12-04T10:34:09;2.30;99.90
61016;DHT22;46902;52.920;6.536;2023-12-04T10:36:38;2.30;99.90
61016;DHT22;46902;52.920;6.536;2023-12-04T10:39:03;2.30;99.90
61016;DHT22;46902;52.920;6.536;2023-12-04T10:41:32;2.40;99.90
61016;DHT22;46902;52.920;6.536;2023-12-04T10:43:58;2.40;99.90
61016;DHT22;46902;52.920;6.536;2023-12-04T10:46:27;2.40;99.90
61016;DHT22;46902;52.920;6.536;2023-12-04T10:48:53;2.40;99.90
61016;DHT22;46902;52.920;6.536;2023-12-04T10:51:19;2.50;99.90
61016;DHT22;46902;52.920;6.536;2023-12-04T10:53:47;2.50;99.90
61016;DHT22;46902;52.920;6.536;2023-12-04T10:56:26;2.50;99.90
61016;DHT22;46902;52.920;6.536;2023-12-04T10:58:53;2.60;99.90
61016;DHT22;46902;52.920;6.536;2023-12-04T11:01:22;2.60;99.90
61016;DHT22;46902;52.920;6.536;2023-12-04T11:03:52;2.60;99.90
61016;DHT22;46902;52.920;6.536;2023-12-04T11:06:20;2.60;99.90
61016;DHT22;46902;52.920;6.536;2023-12-04T11:08:48;2.70;99.90
61016;DHT22;46902;52.920;6.536;2023-12-04T11:11:21;2.70;99.90
61016;DHT22;46902;52.920;6.536;2023-12-04T11:13:50;2.70;99.90
61016;DHT22;46902;52.920;6.536;2023-12-04T11:16:26;2.80;99.90
61016;DHT22;46902;52.920;6.536;2023-12-04T11:19:26;2.80;99.90
61016;DHT22;46902;52.920;6.536;2023-12-04T11:21:58;2.70;99.90
61016;DHT22;46902;52.920;6.536;2023-12-04T11:24:24;2.70;99.90
61016;DHT22;46902;52.920;6.536;2023-12-04T11:26:50;2.80;99.90
61016;DHT22;46902;52.920;6.536;2023-12-04T11:29:18;2.80;99.90
61016;DHT22;46902;52.920;6.536;2023-12-04T11:31:44;2.80;99.90
61016;DHT22;46902;52.920;6.536;2023-12-04T11:34:12;2.70;99.90
61016;DHT22;46902;52.920;6.536;2023-12-04T11:36:38;2.80;99.90
61016;DHT22;46902;52.920;6.536;2023-12-04T11:39:09;2.80;99.90
61016;DHT22;46902;52.920;6.536;2023-12-04T11:41:36;2.80;99.90
61016;DHT22;46902;52.920;6.536;2023-12-04T11:44:03;2.80;99.90
61016;DHT22;46902;52.920;6.536;2023-12-04T11:46:29;2.80;99.90
61016;DHT22;46902;52.920;6.536;2023-12-04T11:48:57;2.90;99.90
61016;DHT22;46902;52.920;6.536;2023-12-04T11:54:09;2.90;99.90
61016;DHT22;46902;52.920;6.536;2023-12-04T11:56:35;2.90;99.90
61016;DHT22;46902;52.920;6.536;2023-12-04T11:59:07;2.90;99.90
61016;DHT22;46902;52.920;6.536;2023-12-04T12:01:36;3.00;99.90
61016;DHT22;46902;52.920;6.536;2023-12-04T12:04:06;2.90;99.90
61016;DHT22;46902;52.920;6.536;2023-12-04T12:06:31;3.00;99.90
61016;DHT22;46902;52.920;6.536;2023-12-04T12:08:57;3.00;99.90
61016;DHT22;46902;52.920;6.536;2023-12-04T12:11:24;3.10;99.90
61016;DHT22;46902;52.920;6.536;2023-12-04T12:13:50;3.20;99.90
61016;DHT22;46902;52.920;6.536;2023-12-04T12:16:18;3.40;99.90
61016;DHT22;46902;52.920;6.536;2023-12-04T12:18:43;3.50;99.90
61016;DHT22;46902;52.920;6.536;2023-12-04T12:21:09;3.70;99.90
61016;DHT22;46902;52.920;6.536;2023-12-04T12:23:35;3.80;99.90
61016;DHT22;46902;52.920;6.536;2023-12-04T12:26:01;4.00;99.90
61016;DHT22;46902;52.920;6.536;2023-12-04T12:28:28;4.20;99.90
61016;DHT22;46902;52.920;6.536;2023-12-04T12:30:54;4.30;99.90
61016;DHT22;46902;52.920;6.536;2023-12-04T12:33:20;4.40;99.90
61016;DHT22;46902;52.920;6.536;2023-12-04T12:35:47;4.40;99.90
61016;DHT22;46902;52.920;6.536;2023-12-04T12:38:13;4.30;99.90
61016;DHT22;46902;52.920;6.536;2023-12-04T12:40:39;4.20;99.90
61016;DHT22;46902;52.920;6.536;2023-12-04T12:43:08;4.10;99.90
61016;DHT22;46902;52.920;6.536;2023-12-04T12:45:44;3.90;99.90
61016;DHT22;46902;52.920;6.536;2023-12-04T12:48:16;3.80;99.90
61016;DHT22;46902;52.920;6.536;2023-12-04T12:50:45;3.70;99.90
61016;DHT22;46902;52.920;6.536;2023-12-04T12:53:12;3.70;99.90
61016;DHT22;46902;52.920;6.536;2023-12-04T12:55:41;3.50;99.90
61016;DHT22;46902;52.920;6.536;2023-12-04T12:58:10;3.50;99.90
61016;DHT22;46902;52.920;6.536;2023-12-04T13:00:36;3.50;99.90
61016;DHT22;46902;52.920;6.536;2023-12-04T13:03:02;3.40;99.90
61016;DHT22;46902;52.920;6.536;2023-12-04T13:05:27;3.40;99.90
61016;DHT22;46902;52.920;6.536;2023-12-04T13:07:54;3.30;99.90
61016;DHT22;46902;52.920;6.536;2023-12-04T13:10:21;3.30;99.90
61016;DHT22;46902;52.920;6.536;2023-12-04T13:12:48;3.30;99.90
61016;DHT22;46902;52.920;6.536;2023-12-04T13:15:17;3.30;99.90
61016;DHT22;46902;52.920;6.536;2023-12-04T13:17:46;3.20;99.90
61016;DHT22;46902;52.920;6.536;2023-12-04T13:20:11;3.20;99.90
61016;DHT22;46902;52.920;6.536;2023-12-04T13:22:39;3.20;99.90
61016;DHT22;46902;52.920;6.536;2023-12-04T13:25:05;3.20;99.90
61016;DHT22;46902;52.920;6.536;2023-12-04T13:27:33;3.30;99.90
61016;DHT22;46902;52.920;6.536;2023-12-04T13:29:58;3.20;99.90
61016;DHT22;46902;52.920;6.536;2023-12-04T13:32:24;3.20;99.90
61016;DHT22;46902;52.920;6.536;2023-12-04T13:34:50;3.20;99.90
61016;DHT22;46902;52.920;6.536;2023-12-04T13:37:15;3.30;99.90
61016;DHT22;46902;52.920;6.536;2023-12-04T13:39:41;3.30;99.90
61016;DHT22;46902;52.920;6.536;2023-12-04T13:42:16;3.30;99.90
61016;DHT22;46902;52.920;6.536;2023-12-04T13:45:01;3.30;99.90
61016;DHT22;46902;52.920;6.536;2023-12-04T13:47:27;3.30;99.90
61016;DHT22;46902;52.920;6.536;2023-12-04T13:49:53;3.20;99.90
61016;DHT22;46902;52.920;6.536;2023-12-04T13:52:20;3.20;99.90
61016;DHT22;46902;52.920;6.536;2023-12-04T13:54:48;3.10;99.90
61016;DHT22;46902;52.920;6.536;2023-12-04T13:57:15;3.20;99.90
61016;DHT22;46902;52.920;6.536;2023-12-04T13:59:47;3.10;99.90
61016;DHT22;46902;52.920;6.536;2023-12-04T14:02:13;3.10;99.90
61016;DHT22;46902;52.920;6.536;2023-12-04T14:04:39;3.10;99.90
61016;DHT22;46902;52.920;6.536;2023-12-04T14:07:05;3.10;99.90
61016;DHT22;46902;52.920;6.536;2023-12-04T14:09:34;3.00;99.90
61016;DHT22;46902;52.920;6.536;2023-12-04T14:12:00;3.00;99.90
61016;DHT22;46902;52.920;6.536;2023-12-04T14:14:26;3.00;99.90
61016;DHT22;46902;52.920;6.536;2023-12-04T14:16:51;3.00;99.90
61016;DHT22;46902;52.920;6.536;2023-12-04T14:19:17;3.00;99.90
61016;DHT22;46902;52.920;6.536;2023-12-04T14:21:46;3.00;99.90
61016;DHT22;46902;52.920;6.536;2023-12-04T14:24:13;2.90;99.90
61016;DHT22;46902;52.920;6.536;2023-12-04T14:26:39;2.90;99.90
61016;DHT22;46902;52.920;6.536;2023-12-04T14:29:06;2.90;99.90
61016;DHT22;46902;52.920;6.536;2023-12-04T14:31:34;2.90;99.90
61016;DHT22;46902;52.920;6.536;2023-12-04T14:33:59;2.90;99.90
61016;DHT22;46902;52.920;6.536;2023-12-04T14:36:25;2.90;99.90
61016;DHT22;46902;52.920;6.536;2023-12-04T14:38:53;2.90;99.90
61016;DHT22;46902;52.920;6.536;2023-12-04T14:41:18;2.90;99.90
61016;DHT22;46902;52.920;6.536;2023-12-04T14:43:44;2.80;99.90
61016;DHT22;46902;52.920;6.536;2023-12-04T14:46:10;2.90;99.90
61016;DHT22;46902;52.920;6.536;2023-12-04T14:48:37;2.90;99.90
61016;DHT22;46902;52.920;6.536;2023-12-04T14:51:04;2.90;99.90
61016;DHT22;46902;52.920;6.536;2023-12-04T14:53:29;2.90;99.90
61016;DHT22;46902;52.920;6.536;2023-12-04T14:56:07;2.80;99.90
61016;DHT22;46902;52.920;6.536;2023-12-04T14:58:38;2.80;99.90
61016;DHT22;46902;52.920;6.536;2023-12-04T15:01:26;2.80;99.90
61016;DHT22;46902;52.920;6.536;2023-12-04T15:04:21;2.80;99.90
61016;DHT22;46902;52.920;6.536;2023-12-04T15:07:05;2.70;99.90
61016;DHT22;46902;52.920;6.536;2023-12-04T15:09:39;2.70;99.90
61016;DHT22;46902;52.920;6.536;2023-12-04T15:12:14;2.70;99.90
61016;DHT22;46902;52.920;6.536;2023-12-04T15:15:03;2.70;99.90
61016;DHT22;46902;52.920;6.536;2023-12-04T15:17:48;2.60;99.90
61016;DHT22;46902;52.920;6.536;2023-12-04T15:20:16;2.60;99.90
61016;DHT22;46902;52.920;6.536;2023-12-04T15:22:58;2.60;99.90
61016;DHT22;46902;52.920;6.536;2023-12-04T15:25:24;2.60;99.90
61016;DHT22;46902;52.920;6.536;2023-12-04T15:27:49;2.60;99.90
61016;DHT22;46902;52.920;6.536;2023-12-04T15:30:16;2.60;99.90
61016;DHT22;46902;52.920;6.536;2023-12-04T15:32:42;2.60;99.90
61016;DHT22;46902;52.920;6.536;2023-12-04T15:35:07;2.60;99.90
61016;DHT22;46902;52.920;6.536;2023-12-04T15:37:35;2.50;99.90
61016;DHT22;46902;52.920;6.536;2023-12-04T15:40:01;2.50;99.90
61016;DHT22;46902;52.920;6.536;2023-12-04T15:42:26;2.50;99.90
61016;DHT22;46902;52.920;6.536;2023-12-04T15:44:54;2.50;99.90